M I D A S
Marine Information and Data Acquisition System
Tripno 1247 of the Zeeleeuw from 2007-04-18 07:13:33 to 2007-04-18 10:57:47
Back to CruiseResearch ActivitiesStationsMapUnderway DataData graphs

EquipmentUnitsComments
TimeDGPSUTC
LatitudeDGPSDM.mWGS84
LongitudeDGPSDM.mWGS84
SpeedMeteo Stationm/sRelative wind speed
DirectionMeteo StationdegRelative wind direction
TemperatureMeteo Stationdeg CelciusAir temperature
PressureMeteo StationPaAtmospheric pressure
HumidityMeteo Station%Relative humidity
Missing or incorrect values are displayed as -999
Metereological data collected by the RV Zeeleeuw from 2007-04-18 07:13:55 to 2007-04-18 12:46:31
Time Latitude Longitude Speed Direction Temperature Pressure Humidity
2007-04-18 07:15 51°13.603 2°56.064 -999 -999 -999 -999 -999
2007-04-18 07:16 51°13.63 2°55.975 -999 -999 -999 -999 -999
2007-04-18 07:17 51°13.659 2°55.885 -999 -999 -999 -999 -999
2007-04-18 07:18 51°13.676 2°55.809 -999 -999 -999 -999 -999
2007-04-18 07:19 51°13.68 2°55.774 -999 -999 -999 -999 -999
2007-04-18 07:20 51°13.681 2°55.757 -999 -999 -999 -999 -999
2007-04-18 07:21 51°13.692 2°55.759 -999 -999 -999 -999 -999
2007-04-18 07:22 51°13.715 2°55.751 -999 -999 -999 -999 -999
2007-04-18 07:23 51°13.764 2°55.698 -999 -999 -999 -999 -999
2007-04-18 07:24 51°13.846 2°55.625 -999 -999 -999 -999 -999
2007-04-18 07:25 51°13.942 2°55.546 -999 -999 -999 -999 -999
2007-04-18 07:26 51°14.048 2°55.482 -999 -999 -999 -999 -999
2007-04-18 07:27 51°14.154 2°55.423 -999 -999 -999 -999 -999
2007-04-18 07:28 51°14.243 2°55.33 -999 -999 -999 -999 -999
2007-04-18 07:29 51°14.319 2°55.176 -999 -999 -999 -999 -999
2007-04-18 07:30 51°14.403 2°54.934 -999 -999 -999 -999 -999
2007-04-18 07:31 51°14.425 2°54.633 -999 -999 -999 -999 -999
2007-04-18 07:32 51°14.378 2°54.31 -999 -999 -999 -999 -999
2007-04-18 07:33 51°14.263 2°54.008 -999 -999 -999 -999 -999
2007-04-18 07:34 51°14.201 2°53.663 -999 -999 -999 -999 -999
2007-04-18 07:35 51°14.113 2°53.32 -999 -999 -999 -999 -999
2007-04-18 07:36 51°14.016 2°52.972 -999 -999 -999 -999 -999
2007-04-18 07:37 51°13.9 2°52.636 -999 -999 -999 -999 -999
2007-04-18 07:38 51°13.779 2°52.305 -999 -999 -999 -999 -999
2007-04-18 07:39 51°13.654 2°51.975 -999 -999 -999 -999 -999
2007-04-18 07:40 51°13.527 2°51.653 -999 -999 -999 -999 -999
2007-04-18 07:41 51°13.397 2°51.317 -999 -999 -999 -999 -999
2007-04-18 07:42 51°13.269 2°50.987 -999 -999 -999 -999 -999
2007-04-18 07:43 51°13.139 2°50.655 -999 -999 -999 -999 -999
2007-04-18 07:44 51°13.008 2°50.319 -999 -999 -999 -999 -999
2007-04-18 07:45 51°12.875 2°49.984 -999 -999 -999 -999 -999
2007-04-18 07:46 51°12.743 2°49.648 -999 -999 -999 -999 -999
2007-04-18 07:47 51°12.627 2°49.299 -999 -999 -999 -999 -999
2007-04-18 07:48 51°12.501 2°48.961 -999 -999 -999 -999 -999
2007-04-18 07:49 51°12.378 2°48.622 -999 -999 -999 -999 -999
2007-04-18 07:50 51°12.257 2°48.284 -999 -999 -999 -999 -999
2007-04-18 07:51 51°12.16 2°47.928 -999 -999 -999 -999 -999
2007-04-18 07:52 51°12.102 2°47.598 -999 -999 -999 -999 -999
2007-04-18 07:53 51°12.039 2°47.469 -999 -999 -999 -999 -999
2007-04-18 07:54 51°12.001 2°47.417 -999 -999 -999 -999 -999
2007-04-18 07:55 51°11.964 2°47.375 -999 -999 -999 -999 -999
2007-04-18 07:56 51°11.898 2°47.319 -999 -999 -999 -999 -999
2007-04-18 07:57 51°11.823 2°47.217 -999 -999 -999 -999 -999
2007-04-18 07:58 51°11.778 2°47.107 -999 -999 -999 -999 -999
2007-04-18 07:59 51°11.746 2°47.014 -999 -999 -999 -999 -999
2007-04-18 08:00 51°11.721 2°46.937 -999 -999 -999 -999 -999
2007-04-18 08:01 51°11.695 2°46.872 -999 -999 -999 -999 -999
2007-04-18 08:02 51°11.669 2°46.808 -999 -999 -999 -999 -999
2007-04-18 08:03 51°11.642 2°46.738 -999 -999 -999 -999 -999
2007-04-18 08:04 51°11.615 2°46.665 -999 -999 -999 -999 -999
2007-04-18 08:05 51°11.59 2°46.591 -999 -999 -999 -999 -999
2007-04-18 08:06 51°11.564 2°46.516 -999 -999 -999 -999 -999
2007-04-18 08:07 51°11.538 2°46.441 -999 -999 -999 -999 -999
2007-04-18 08:08 51°11.514 2°46.364 -999 -999 -999 -999 -999
2007-04-18 08:09 51°11.49 2°46.288 -999 -999 -999 -999 -999
2007-04-18 08:10 51°11.467 2°46.21 -999 -999 -999 -999 -999
2007-04-18 08:11 51°11.445 2°46.131 -999 -999 -999 -999 -999
2007-04-18 08:12 51°11.427 2°46.05 -999 -999 -999 -999 -999
2007-04-18 08:13 51°11.416 2°45.971 -999 -999 -999 -999 -999
2007-04-18 08:14 51°11.415 2°45.897 -999 -999 -999 -999 -999
2007-04-18 08:15 51°11.429 2°45.824 -999 -999 -999 -999 -999
2007-04-18 08:16 51°11.448 2°45.734 -999 -999 -999 -999 -999
2007-04-18 08:17 51°11.452 2°45.638 -999 -999 -999 -999 -999
2007-04-18 08:18 51°11.454 2°45.546 -999 -999 -999 -999 -999
2007-04-18 08:19 51°11.457 2°45.46 -999 -999 -999 -999 -999
2007-04-18 08:20 51°11.466 2°45.381 -999 -999 -999 -999 -999
2007-04-18 08:21 51°11.474 2°45.304 -999 -999 -999 -999 -999
2007-04-18 08:22 51°11.482 2°45.228 -999 -999 -999 -999 -999
2007-04-18 08:23 51°11.49 2°45.155 -999 -999 -999 -999 -999
2007-04-18 08:24 51°11.504 2°45.096 -999 -999 -999 -999 -999
2007-04-18 08:25 51°11.517 2°45.06 -999 -999 -999 -999 -999
2007-04-18 08:26 51°11.524 2°45.026 -999 -999 -999 -999 -999
2007-04-18 08:27 51°11.526 2°44.991 -999 -999 -999 -999 -999
2007-04-18 08:28 51°11.547 2°44.959 -999 -999 -999 -999 -999
2007-04-18 08:29 51°11.555 2°45.04 -999 -999 -999 -999 -999
2007-04-18 08:30 51°11.529 2°45.244 -999 -999 -999 -999 -999
2007-04-18 08:31 51°11.538 2°45.416 -999 -999 -999 -999 -999
2007-04-18 08:32 51°11.56 2°45.429 -999 -999 -999 -999 -999
2007-04-18 08:33 51°11.573 2°45.401 -999 -999 -999 -999 -999
2007-04-18 08:34 51°11.58 2°45.364 -999 -999 -999 -999 -999
2007-04-18 08:35 51°11.583 2°45.324 -999 -999 -999 -999 -999
2007-04-18 08:36 51°11.583 2°45.284 -999 -999 -999 -999 -999
2007-04-18 08:37 51°11.582 2°45.247 -999 -999 -999 -999 -999
2007-04-18 08:38 51°11.579 2°45.211 -999 -999 -999 -999 -999
2007-04-18 08:39 51°11.576 2°45.178 -999 -999 -999 -999 -999
2007-04-18 08:40 51°11.571 2°45.147 -999 -999 -999 -999 -999
2007-04-18 08:41 51°11.568 2°45.116 -999 -999 -999 -999 -999
2007-04-18 08:42 51°11.586 2°45.03 -999 -999 -999 -999 -999
2007-04-18 08:43 51°11.598 2°44.771 -999 -999 -999 -999 -999
2007-04-18 08:44 51°11.622 2°44.39 -999 -999 -999 -999 -999
2007-04-18 08:45 51°11.634 2°44.014 -999 -999 -999 -999 -999
2007-04-18 08:46 51°11.619 2°43.644 -999 -999 -999 -999 -999
2007-04-18 08:47 51°11.593 2°43.298 -999 -999 -999 -999 -999
2007-04-18 08:48 51°11.567 2°43.06 -999 -999 -999 -999 -999
2007-04-18 08:49 51°11.55 2°42.825 -999 -999 -999 -999 -999
2007-04-18 08:50 51°11.53 2°42.623 -999 -999 -999 -999 -999
2007-04-18 08:51 51°11.503 2°42.517 -999 -999 -999 -999 -999
2007-04-18 08:52 51°11.49 2°42.427 -999 -999 -999 -999 -999
2007-04-18 08:53 51°11.51 2°42.329 -999 -999 -999 -999 -999
2007-04-18 08:54 51°11.534 2°42.225 -999 -999 -999 -999 -999
2007-04-18 08:55 51°11.55 2°42.136 -999 -999 -999 -999 -999
2007-04-18 08:56 51°11.555 2°42.055 -999 -999 -999 -999 -999
2007-04-18 08:57 51°11.544 2°41.969 -999 -999 -999 -999 -999
2007-04-18 08:58 51°11.523 2°41.88 -999 -999 -999 -999 -999
2007-04-18 08:59 51°11.5 2°41.801 -999 -999 -999 -999 -999
2007-04-18 09:00 51°11.477 2°41.728 -999 -999 -999 -999 -999
2007-04-18 09:01 51°11.451 2°41.658 -999 -999 -999 -999 -999
2007-04-18 09:02 51°11.424 2°41.588 -999 -999 -999 -999 -999
2007-04-18 09:03 51°11.392 2°41.515 -999 -999 -999 -999 -999
2007-04-18 09:04 51°11.357 2°41.444 -999 -999 -999 -999 -999
2007-04-18 09:05 51°11.318 2°41.377 -999 -999 -999 -999 -999
2007-04-18 09:06 51°11.276 2°41.316 -999 -999 -999 -999 -999
2007-04-18 09:07 51°11.234 2°41.256 -999 -999 -999 -999 -999
2007-04-18 09:08 51°11.192 2°41.197 -999 -999 -999 -999 -999
2007-04-18 09:09 51°11.151 2°41.138 -999 -999 -999 -999 -999
2007-04-18 09:10 51°11.109 2°41.082 -999 -999 -999 -999 -999
2007-04-18 09:11 51°11.067 2°41.027 -999 -999 -999 -999 -999
2007-04-18 09:12 51°11.026 2°40.97 -999 -999 -999 -999 -999
2007-04-18 09:13 51°10.984 2°40.916 -999 -999 -999 -999 -999
2007-04-18 09:14 51°10.942 2°40.863 -999 -999 -999 -999 -999
2007-04-18 09:15 51°10.896 2°40.824 -999 -999 -999 -999 -999
2007-04-18 09:16 51°10.849 2°40.786 -999 -999 -999 -999 -999
2007-04-18 09:17 51°10.802 2°40.743 -999 -999 -999 -999 -999
2007-04-18 09:18 51°10.762 2°40.691 -999 -999 -999 -999 -999
2007-04-18 09:19 51°10.728 2°40.631 -999 -999 -999 -999 -999
2007-04-18 09:20 51°10.708 2°40.562 -999 -999 -999 -999 -999
2007-04-18 09:21 51°10.7 2°40.501 -999 -999 -999 -999 -999
2007-04-18 09:22 51°10.691 2°40.452 -999 -999 -999 -999 -999
2007-04-18 09:23 51°10.679 2°40.41 -999 -999 -999 -999 -999
2007-04-18 09:24 51°10.678 2°40.337 -999 -999 -999 -999 -999
2007-04-18 09:25 51°10.716 2°40.298 -999 -999 -999 -999 -999
2007-04-18 09:26 51°10.786 2°40.365 -999 -999 -999 -999 -999
2007-04-18 09:27 51°10.918 2°40.572 -999 -999 -999 -999 -999
2007-04-18 09:28 51°11.062 2°40.798 -999 -999 -999 -999 -999
2007-04-18 09:29 51°11.205 2°41.027 -999 -999 -999 -999 -999
2007-04-18 09:30 51°11.286 2°41.244 -999 -999 -999 -999 -999
2007-04-18 09:31 51°11.292 2°41.343 -999 -999 -999 -999 -999
2007-04-18 09:32 51°11.295 2°41.361 -999 -999 -999 -999 -999
2007-04-18 09:33 51°11.296 2°41.366 -999 -999 -999 -999 -999
2007-04-18 09:34 51°11.294 2°41.364 -999 -999 -999 -999 -999
2007-04-18 09:35 51°11.29 2°41.359 -999 -999 -999 -999 -999
2007-04-18 09:36 51°11.283 2°41.352 -999 -999 -999 -999 -999
2007-04-18 09:37 51°11.275 2°41.344 -999 -999 -999 -999 -999
2007-04-18 09:38 51°11.267 2°41.335 -999 -999 -999 -999 -999
2007-04-18 09:39 51°11.265 2°41.328 -999 -999 -999 -999 -999
2007-04-18 09:40 51°11.291 2°41.323 -999 -999 -999 -999 -999
2007-04-18 09:41 51°11.316 2°41.314 -999 -999 -999 -999 -999
2007-04-18 09:42 51°11.335 2°41.304 -999 -999 -999 -999 -999
2007-04-18 09:43 51°11.346 2°41.292 -999 -999 -999 -999 -999
2007-04-18 09:44 51°11.352 2°41.28 -999 -999 -999 -999 -999
2007-04-18 09:45 51°11.352 2°41.268 -999 -999 -999 -999 -999
2007-04-18 09:46 51°11.355 2°41.258 -999 -999 -999 -999 -999
2007-04-18 09:47 51°11.377 2°41.302 -999 -999 -999 -999 -999
2007-04-18 09:48 51°11.358 2°41.497 -999 -999 -999 -999 -999
2007-04-18 09:49 51°11.363 2°41.789 -999 -999 -999 -999 -999
2007-04-18 09:50 51°11.367 2°42.097 -999 -999 -999 -999 -999
2007-04-18 09:51 51°11.37 2°42.408 -999 -999 -999 -999 -999
2007-04-18 09:52 51°11.402 2°42.725 -999 -999 -999 -999 -999
2007-04-18 09:53 51°11.44 2°43.06 -999 -999 -999 -999 -999
2007-04-18 09:54 51°11.476 2°43.398 -999 -999 -999 -999 -999
2007-04-18 09:55 51°11.513 2°43.737 -999 -999 -999 -999 -999
2007-04-18 09:56 51°11.548 2°44.076 -999 -999 -999 -999 -999
2007-04-18 09:57 51°11.584 2°44.414 -999 -999 -999 -999 -999
2007-04-18 09:58 51°11.619 2°44.752 -999 -999 -999 -999 -999
2007-04-18 09:59 51°11.654 2°45.09 -999 -999 -999 -999 -999
2007-04-18 10:00 51°11.688 2°45.428 -999 -999 -999 -999 -999
2007-04-18 10:01 51°11.727 2°45.763 -999 -999 -999 -999 -999
2007-04-18 10:02 51°11.786 2°46.086 -999 -999 -999 -999 -999
2007-04-18 10:03 51°11.844 2°46.404 -999 -999 -999 -999 -999
2007-04-18 10:04 51°11.903 2°46.722 -999 -999 -999 -999 -999
2007-04-18 10:05 51°11.998 2°47.018 -999 -999 -999 -999 -999
2007-04-18 10:06 51°12.108 2°47.306 -999 -999 -999 -999 -999
2007-04-18 10:07 51°12.215 2°47.6 -999 -999 -999 -999 -999
2007-04-18 10:08 51°12.319 2°47.896 -999 -999 -999 -999 -999
2007-04-18 10:09 51°12.422 2°48.194 -999 -999 -999 -999 -999
2007-04-18 10:10 51°12.524 2°48.493 -999 -999 -999 -999 -999
2007-04-18 10:11 51°12.626 2°48.794 -999 -999 -999 -999 -999
2007-04-18 10:12 51°12.728 2°49.097 -999 -999 -999 -999 -999
2007-04-18 10:13 51°12.83 2°49.4 -999 -999 -999 -999 -999
2007-04-18 10:14 51°12.931 2°49.703 -999 -999 -999 -999 -999
2007-04-18 10:15 51°13.032 2°50.006 -999 -999 -999 -999 -999
2007-04-18 10:16 51°13.134 2°50.31 -999 -999 -999 -999 -999
2007-04-18 10:17 51°13.235 2°50.613 -999 -999 -999 -999 -999
2007-04-18 10:18 51°13.335 2°50.916 -999 -999 -999 -999 -999
2007-04-18 10:19 51°13.436 2°51.219 -999 -999 -999 -999 -999
2007-04-18 10:20 51°13.535 2°51.521 -999 -999 -999 -999 -999
2007-04-18 10:21 51°13.634 2°51.825 -999 -999 -999 -999 -999
2007-04-18 10:22 51°13.734 2°52.128 -999 -999 -999 -999 -999
2007-04-18 10:23 51°13.833 2°52.431 -999 -999 -999 -999 -999
2007-04-18 10:24 51°13.92 2°52.705 -999 -999 -999 -999 -999
2007-04-18 10:25 51°13.938 2°52.835 -999 -999 -999 -999 -999
2007-04-18 10:26 51°13.93 2°52.846 -999 -999 -999 -999 -999
2007-04-18 10:27 51°13.922 2°52.85 -999 -999 -999 -999 -999
2007-04-18 10:28 51°13.911 2°52.856 -999 -999 -999 -999 -999
2007-04-18 10:29 51°13.9 2°52.862 -999 -999 -999 -999 -999
2007-04-18 10:30 51°13.887 2°52.867 -999 -999 -999 -999 -999
2007-04-18 10:31 51°13.876 2°52.87 -999 -999 -999 -999 -999
2007-04-18 10:32 51°13.866 2°52.871 -999 -999 -999 -999 -999
2007-04-18 10:33 51°13.856 2°52.873 -999 -999 -999 -999 -999
2007-04-18 10:34 51°13.847 2°52.874 -999 -999 -999 -999 -999
2007-04-18 10:35 51°13.835 2°52.876 -999 -999 -999 -999 -999
2007-04-18 10:36 51°13.783 2°52.875 -999 -999 -999 -999 -999
2007-04-18 10:37 51°13.725 2°52.943 -999 -999 -999 -999 -999
2007-04-18 10:38 51°13.71 2°53.039 -999 -999 -999 -999 -999
2007-04-18 10:39 51°13.713 2°53.137 -999 -999 -999 -999 -999
2007-04-18 10:40 51°13.717 2°53.237 -999 -999 -999 -999 -999
2007-04-18 10:41 51°13.734 2°53.328 -999 -999 -999 -999 -999
2007-04-18 10:42 51°13.767 2°53.405 -999 -999 -999 -999 -999
2007-04-18 10:43 51°13.801 2°53.481 -999 -999 -999 -999 -999
2007-04-18 10:44 51°13.837 2°53.562 -999 -999 -999 -999 -999
2007-04-18 10:45 51°13.875 2°53.64 -999 -999 -999 -999 -999
2007-04-18 10:46 51°13.914 2°53.718 -999 -999 -999 -999 -999
2007-04-18 10:47 51°13.954 2°53.799 -999 -999 -999 -999 -999
2007-04-18 10:48 51°14 2°53.868 -999 -999 -999 -999 -999
2007-04-18 10:49 51°14.047 2°53.936 -999 -999 -999 -999 -999
2007-04-18 10:50 51°14.097 2°53.999 -999 -999 -999 -999 -999
2007-04-18 10:51 51°14.15 2°54.057 -999 -999 -999 -999 -999
2007-04-18 10:52 51°14.204 2°54.11 -999 -999 -999 -999 -999
2007-04-18 10:53 51°14.284 2°54.179 -999 -999 -999 -999 -999
2007-04-18 10:54 51°14.402 2°54.388 -999 -999 -999 -999 -999
2007-04-18 10:55 51°14.465 2°54.592 -999 -999 -999 -999 -999
2007-04-18 10:56 51°14.453 2°54.817 -999 -999 -999 -999 -999
2007-04-18 10:57 51°14.382 2°55.027 -999 -999 -999 -999 -999
2007-04-18 10:58 51°14.302 2°55.201 -999 -999 -999 -999 -999
2007-04-18 10:59 51°14.239 2°55.288 -999 -999 -999 -999 -999
2007-04-18 11:00 51°14.2 2°55.336 -999 -999 -999 -999 -999
2007-04-18 11:01 51°14.171 2°55.373 -999 -999 -999 -999 -999
2007-04-18 11:02 51°14.133 2°55.405 -999 -999 -999 -999 -999
2007-04-18 11:03 51°14.091 2°55.436 -999 -999 -999 -999 -999
2007-04-18 11:04 51°14.041 2°55.457 -999 -999 -999 -999 -999
2007-04-18 11:05 51°13.996 2°55.464 -999 -999 -999 -999 -999
2007-04-18 11:06 51°13.988 2°55.465 -999 -999 -999 -999 -999
2007-04-18 11:07 51°13.987 2°55.464 -999 -999 -999 -999 -999
2007-04-18 11:08 51°13.988 2°55.463 -999 -999 -999 -999 -999
2007-04-18 11:09 51°13.988 2°55.462 -999 -999 -999 -999 -999
2007-04-18 11:10 51°13.989 2°55.46 -999 -999 -999 -999 -999
2007-04-18 11:11 51°13.989 2°55.459 -999 -999 -999 -999 -999
2007-04-18 11:12 51°13.991 2°55.46 -999 -999 -999 -999 -999
2007-04-18 11:13 51°13.994 2°55.46 -999 -999 -999 -999 -999
2007-04-18 11:14 51°13.995 2°55.458 -999 -999 -999 -999 -999
2007-04-18 11:15 51°13.995 2°55.459 -999 -999 -999 -999 -999
2007-04-18 11:16 51°13.996 2°55.458 -999 -999 -999 -999 -999
2007-04-18 11:17 51°13.994 2°55.458 -999 -999 -999 -999 -999
2007-04-18 11:18 51°13.993 2°55.458 -999 -999 -999 -999 -999
2007-04-18 11:19 51°13.993 2°55.458 -999 -999 -999 -999 -999
2007-04-18 11:20 51°13.992 2°55.459 -999 -999 -999 -999 -999
2007-04-18 11:21 51°13.992 2°55.459 -999 -999 -999 -999 -999
2007-04-18 11:22 51°13.992 2°55.459 -999 -999 -999 -999 -999
2007-04-18 11:23 51°13.992 2°55.459 -999 -999 -999 -999 -999
2007-04-18 11:24 51°13.991 2°55.459 -999 -999 -999 -999 -999
2007-04-18 11:25 51°13.991 2°55.459 -999 -999 -999 -999 -999
2007-04-18 11:26 51°13.991 2°55.459 -999 -999 -999 -999 -999
2007-04-18 11:27 51°13.991 2°55.458 -999 -999 -999 -999 -999
2007-04-18 11:28 51°13.991 2°55.459 -999 -999 -999 -999 -999
2007-04-18 11:29 51°13.991 2°55.459 -999 -999 -999 -999 -999
2007-04-18 11:30 51°13.991 2°55.459 -999 -999 -999 -999 -999
2007-04-18 11:31 51°13.991 2°55.459 -999 -999 -999 -999 -999
2007-04-18 11:32 51°13.991 2°55.459 -999 -999 -999 -999 -999
2007-04-18 11:33 51°13.992 2°55.459 -999 -999 -999 -999 -999
2007-04-18 11:34 51°13.992 2°55.459 -999 -999 -999 -999 -999
2007-04-18 11:35 51°13.992 2°55.459 -999 -999 -999 -999 -999
2007-04-18 11:36 51°13.991 2°55.459 -999 -999 -999 -999 -999
2007-04-18 11:37 51°13.992 2°55.46 -999 -999 -999 -999 -999
2007-04-18 11:38 51°13.992 2°55.459 -999 -999 -999 -999 -999
2007-04-18 11:39 51°13.992 2°55.459 -999 -999 -999 -999 -999
2007-04-18 11:40 51°13.991 2°55.459 -999 -999 -999 -999 -999
2007-04-18 11:41 51°13.991 2°55.459 -999 -999 -999 -999 -999
2007-04-18 11:42 51°13.991 2°55.459 -999 -999 -999 -999 -999
2007-04-18 11:43 51°13.991 2°55.459 -999 -999 -999 -999 -999
2007-04-18 11:44 51°13.991 2°55.459 -999 -999 -999 -999 -999
2007-04-18 11:45 51°13.991 2°55.46 -999 -999 -999 -999 -999
2007-04-18 11:46 51°13.992 2°55.46 -999 -999 -999 -999 -999
2007-04-18 11:47 51°13.991 2°55.46 -999 -999 -999 -999 -999
2007-04-18 11:48 51°13.991 2°55.46 -999 -999 -999 -999 -999
2007-04-18 11:49 51°13.991 2°55.459 -999 -999 -999 -999 -999
2007-04-18 11:50 51°13.991 2°55.46 -999 -999 -999 -999 -999
2007-04-18 11:51 51°13.991 2°55.46 -999 -999 -999 -999 -999
2007-04-18 11:52 51°13.99 2°55.459 -999 -999 -999 -999 -999
2007-04-18 11:53 51°13.991 2°55.459 -999 -999 -999 -999 -999
2007-04-18 11:54 51°13.991 2°55.46 -999 -999 -999 -999 -999
2007-04-18 11:55 51°13.991 2°55.459 -999 -999 -999 -999 -999
2007-04-18 11:56 51°13.991 2°55.459 -999 -999 -999 -999 -999
2007-04-18 11:57 51°13.991 2°55.459 -999 -999 -999 -999 -999
2007-04-18 11:58 51°13.99 2°55.459 -999 -999 -999 -999 -999
2007-04-18 11:59 51°13.99 2°55.459 -999 -999 -999 -999 -999
2007-04-18 12:00 51°13.99 2°55.459 -999 -999 -999 -999 -999
2007-04-18 12:01 51°13.99 2°55.459 -999 -999 -999 -999 -999
2007-04-18 12:02 51°13.99 2°55.46 -999 -999 -999 -999 -999
2007-04-18 12:03 51°13.99 2°55.46 -999 -999 -999 -999 -999
2007-04-18 12:04 51°13.991 2°55.46 -999 -999 -999 -999 -999
2007-04-18 12:05 51°13.991 2°55.46 -999 -999 -999 -999 -999
2007-04-18 12:06 51°13.991 2°55.459 -999 -999 -999 -999 -999
2007-04-18 12:07 51°13.991 2°55.459 -999 -999 -999 -999 -999
2007-04-18 12:08 51°13.991 2°55.459 -999 -999 -999 -999 -999
2007-04-18 12:09 51°13.991 2°55.459 -999 -999 -999 -999 -999
2007-04-18 12:10 51°13.991 2°55.459 -999 -999 -999 -999 -999
2007-04-18 12:11 51°13.991 2°55.459 -999 -999 -999 -999 -999
2007-04-18 12:12 51°13.992 2°55.459 -999 -999 -999 -999 -999
2007-04-18 12:13 51°13.992 2°55.458 -999 -999 -999 -999 -999
2007-04-18 12:14 51°13.992 2°55.458 -999 -999 -999 -999 -999
2007-04-18 12:15 51°13.991 2°55.458 -999 -999 -999 -999 -999
2007-04-18 12:16 51°13.991 2°55.458 -999 -999 -999 -999 -999
2007-04-18 12:17 51°13.991 2°55.458 -999 -999 -999 -999 -999
2007-04-18 12:18 51°13.991 2°55.459 -999 -999 -999 -999 -999
2007-04-18 12:19 51°13.991 2°55.459 -999 -999 -999 -999 -999
2007-04-18 12:20 51°13.991 2°55.458 -999 -999 -999 -999 -999
2007-04-18 12:21 51°13.991 2°55.458 -999 -999 -999 -999 -999
2007-04-18 12:22 51°13.991 2°55.458 -999 -999 -999 -999 -999
2007-04-18 12:23 51°13.991 2°55.459 -999 -999 -999 -999 -999
2007-04-18 12:24 51°13.991 2°55.459 -999 -999 -999 -999 -999
2007-04-18 12:25 51°13.991 2°55.459 -999 -999 -999 -999 -999
2007-04-18 12:26 51°13.991 2°55.46 -999 -999 -999 -999 -999
2007-04-18 12:27 51°13.991 2°55.46 -999 -999 -999 -999 -999
2007-04-18 12:28 51°13.991 2°55.459 -999 -999 -999 -999 -999
2007-04-18 12:29 51°13.991 2°55.459 -999 -999 -999 -999 -999
2007-04-18 12:30 51°13.991 2°55.458 -999 -999 -999 -999 -999
2007-04-18 12:31 51°13.991 2°55.458 -999 -999 -999 -999 -999
2007-04-18 12:32 51°13.991 2°55.459 -999 -999 -999 -999 -999
2007-04-18 12:33 51°13.994 2°55.459 -999 -999 -999 -999 -999
2007-04-18 12:34 51°14.011 2°55.452 -999 -999 -999 -999 -999
2007-04-18 12:35 51°14.015 2°55.452 -999 -999 -999 -999 -999
2007-04-18 12:36 51°13.988 2°55.482 -999 -999 -999 -999 -999
2007-04-18 12:37 51°13.916 2°55.549 -999 -999 -999 -999 -999
2007-04-18 12:38 51°13.825 2°55.633 -999 -999 -999 -999 -999
2007-04-18 12:39 51°13.753 2°55.722 -999 -999 -999 -999 -999
2007-04-18 12:40 51°13.694 2°55.817 -999 -999 -999 -999 -999
2007-04-18 12:41 51°13.651 2°55.907 -999 -999 -999 -999 -999
2007-04-18 12:42 51°13.62 2°55.985 -999 -999 -999 -999 -999
2007-04-18 12:43 51°13.599 2°56.051 -999 -999 -999 -999 -999
2007-04-18 12:44 51°13.591 2°56.099 -999 -999 -999 -999 -999
2007-04-18 12:45 51°13.587 2°56.115 -999 -999 -999 -999 -999
2007-04-18 12:46 51°13.584 2°56.123 -999 -999 -999 -999 -999